sensor_id;sensor_type;location;lat;lon;timestamp;pressure;altitude;pressure_sealevel;temperature;humidity
6532;BME280;3299;42.004;24.868;2022-12-01T00:01:07;98632.72;;;7.35;100.00
6532;BME280;3299;42.004;24.868;2022-12-01T00:03:33;98632.22;;;7.29;100.00
6532;BME280;3299;42.004;24.868;2022-12-01T00:08:24;98627.59;;;7.18;100.00
6532;BME280;3299;42.004;24.868;2022-12-01T00:10:49;98625.03;;;7.18;100.00
6532;BME280;3299;42.004;24.868;2022-12-01T00:13:15;98631.88;;;7.19;100.00
6532;BME280;3299;42.004;24.868;2022-12-01T00:15:40;98635.59;;;7.29;100.00
6532;BME280;3299;42.004;24.868;2022-12-01T00:18:06;98636.59;;;7.27;100.00
6532;BME280;3299;42.004;24.868;2022-12-01T00:20:33;98633.94;;;7.28;100.00
6532;BME280;3299;42.004;24.868;2022-12-01T00:22:59;98630.88;;;7.22;100.00
6532;BME280;3299;42.004;24.868;2022-12-01T00:25:25;98617.19;;;7.04;100.00
6532;BME280;3299;42.004;24.868;2022-12-01T00:27:51;98629.16;;;7.05;100.00
6532;BME280;3299;42.004;24.868;2022-12-01T00:30:18;98630.16;;;6.86;100.00
6532;BME280;3299;42.004;24.868;2022-12-01T00:32:44;98625.91;;;6.85;100.00
6532;BME280;3299;42.004;24.868;2022-12-01T00:35:11;98631.75;;;6.88;100.00
6532;BME280;3299;42.004;24.868;2022-12-01T00:37:36;98633.13;;;6.95;100.00
6532;BME280;3299;42.004;24.868;2022-12-01T00:40:03;98620.94;;;6.82;100.00
6532;BME280;3299;42.004;24.868;2022-12-01T00:42:29;98626.38;;;7.10;100.00
6532;BME280;3299;42.004;24.868;2022-12-01T00:44:55;98624.34;;;7.15;100.00
6532;BME280;3299;42.004;24.868;2022-12-01T00:47:20;98617.56;;;7.14;100.00
6532;BME280;3299;42.004;24.868;2022-12-01T00:49:45;98587.50;;;6.99;100.00
6532;BME280;3299;42.004;24.868;2022-12-01T00:52:12;98620.66;;;7.20;100.00
6532;BME280;3299;42.004;24.868;2022-12-01T00:54:38;98614.44;;;7.24;100.00
6532;BME280;3299;42.004;24.868;2022-12-01T00:57:04;98615.50;;;7.20;100.00
6532;BME280;3299;42.004;24.868;2022-12-01T00:59:29;98613.97;;;7.33;100.00
6532;BME280;3299;42.004;24.868;2022-12-01T01:01:55;98614.69;;;7.35;100.00
6532;BME280;3299;42.004;24.868;2022-12-01T01:04:20;98569.50;;;7.14;100.00
6532;BME280;3299;42.004;24.868;2022-12-01T01:06:46;98605.19;;;7.37;100.00
6532;BME280;3299;42.004;24.868;2022-12-01T01:09:12;98612.91;;;7.53;100.00
6532;BME280;3299;42.004;24.868;2022-12-01T01:11:38;98606.25;;;7.49;100.00
6532;BME280;3299;42.004;24.868;2022-12-01T01:14:04;98607.69;;;7.54;100.00
6532;BME280;3299;42.004;24.868;2022-12-01T01:16:30;98595.03;;;7.50;100.00
6532;BME280;3299;42.004;24.868;2022-12-01T01:18:56;98594.56;;;7.43;100.00
6532;BME280;3299;42.004;24.868;2022-12-01T01:21:23;98589.81;;;7.36;100.00
6532;BME280;3299;42.004;24.868;2022-12-01T01:23:50;98588.22;;;7.33;100.00
6532;BME280;3299;42.004;24.868;2022-12-01T01:26:25;98587.75;;;7.42;100.00
6532;BME280;3299;42.004;24.868;2022-12-01T01:28:51;98576.47;;;7.60;100.00
6532;BME280;3299;42.004;24.868;2022-12-01T01:31:19;98587.09;;;7.54;100.00
6532;BME280;3299;42.004;24.868;2022-12-01T01:33:45;98575.13;;;7.53;100.00
6532;BME280;3299;42.004;24.868;2022-12-01T01:36:12;98580.69;;;7.46;100.00
6532;BME280;3299;42.004;24.868;2022-12-01T01:38:38;98577.13;;;7.48;100.00
6532;BME280;3299;42.004;24.868;2022-12-01T01:41:04;98573.94;;;7.28;100.00
6532;BME280;3299;42.004;24.868;2022-12-01T01:43:42;98567.47;;;7.36;100.00
6532;BME280;3299;42.004;24.868;2022-12-01T01:46:21;98574.22;;;7.39;100.00
6532;BME280;3299;42.004;24.868;2022-12-01T01:51:38;98575.50;;;6.98;100.00
6532;BME280;3299;42.004;24.868;2022-12-01T01:54:08;98574.91;;;7.10;100.00
6532;BME280;3299;42.004;24.868;2022-12-01T01:56:44;98568.19;;;7.07;100.00
6532;BME280;3299;42.004;24.868;2022-12-01T01:59:12;98576.34;;;6.98;100.00
6532;BME280;3299;42.004;24.868;2022-12-01T02:01:39;98572.19;;;6.96;100.00
6532;BME280;3299;42.004;24.868;2022-12-01T02:04:04;98576.72;;;7.08;100.00
6532;BME280;3299;42.004;24.868;2022-12-01T02:06:30;98570.22;;;7.01;100.00
6532;BME280;3299;42.004;24.868;2022-12-01T02:08:55;98567.41;;;7.05;100.00
6532;BME280;3299;42.004;24.868;2022-12-01T02:11:33;98570.09;;;7.04;100.00
6532;BME280;3299;42.004;24.868;2022-12-01T02:14:07;98567.59;;;7.02;100.00
6532;BME280;3299;42.004;24.868;2022-12-01T02:16:45;98566.88;;;7.16;100.00
6532;BME280;3299;42.004;24.868;2022-12-01T02:25:18;98562.25;;;7.05;100.00
6532;BME280;3299;42.004;24.868;2022-12-01T02:30:51;98558.81;;;7.22;100.00
6532;BME280;3299;42.004;24.868;2022-12-01T02:33:39;98549.34;;;7.22;100.00
6532;BME280;3299;42.004;24.868;2022-12-01T02:36:19;98548.22;;;7.28;100.00
6532;BME280;3299;42.004;24.868;2022-12-01T02:38:56;98544.53;;;7.16;100.00
6532;BME280;3299;42.004;24.868;2022-12-01T02:44:17;98548.34;;;7.25;100.00
6532;BME280;3299;42.004;24.868;2022-12-01T02:49:16;98549.78;;;7.30;100.00
6532;BME280;3299;42.004;24.868;2022-12-01T02:51:43;98543.72;;;7.31;100.00
6532;BME280;3299;42.004;24.868;2022-12-01T02:54:11;98542.06;;;7.46;100.00
6532;BME280;3299;42.004;24.868;2022-12-01T02:56:37;98547.03;;;7.49;100.00
6532;BME280;3299;42.004;24.868;2022-12-01T02:59:13;98545.06;;;7.38;100.00
6532;BME280;3299;42.004;24.868;2022-12-01T03:04:41;98540.25;;;7.48;100.00
6532;BME280;3299;42.004;24.868;2022-12-01T03:07:31;98541.50;;;7.41;100.00
6532;BME280;3299;42.004;24.868;2022-12-01T03:15:06;98529.44;;;7.41;100.00
6532;BME280;3299;42.004;24.868;2022-12-01T03:23:22;98538.41;;;7.50;100.00
6532;BME280;3299;42.004;24.868;2022-12-01T03:25:51;98547.56;;;7.40;100.00
6532;BME280;3299;42.004;24.868;2022-12-01T03:28:24;98532.66;;;7.29;100.00
6532;BME280;3299;42.004;24.868;2022-12-01T03:30:57;98527.50;;;7.29;100.00
6532;BME280;3299;42.004;24.868;2022-12-01T03:33:35;98539.72;;;7.41;100.00
6532;BME280;3299;42.004;24.868;2022-12-01T03:36:18;98540.75;;;7.39;100.00
6532;BME280;3299;42.004;24.868;2022-12-01T03:38:51;98524.22;;;7.27;100.00
6532;BME280;3299;42.004;24.868;2022-12-01T03:41:23;98527.50;;;7.29;100.00
6532;BME280;3299;42.004;24.868;2022-12-01T03:43:55;98521.47;;;7.30;100.00
6532;BME280;3299;42.004;24.868;2022-12-01T03:46:55;98536.66;;;7.35;100.00
6532;BME280;3299;42.004;24.868;2022-12-01T03:49:23;98538.25;;;7.37;100.00
6532;BME280;3299;42.004;24.868;2022-12-01T03:52:24;98536.09;;;7.45;100.00
6532;BME280;3299;42.004;24.868;2022-12-01T03:57:29;98537.84;;;7.45;100.00
6532;BME280;3299;42.004;24.868;2022-12-01T03:59:56;98533.91;;;7.38;100.00
6532;BME280;3299;42.004;24.868;2022-12-01T04:02:22;98532.34;;;7.35;100.00
6532;BME280;3299;42.004;24.868;2022-12-01T04:04:52;98534.44;;;7.44;100.00
6532;BME280;3299;42.004;24.868;2022-12-01T04:07:17;98534.91;;;7.35;100.00
6532;BME280;3299;42.004;24.868;2022-12-01T04:09:43;98537.91;;;7.43;100.00
6532;BME280;3299;42.004;24.868;2022-12-01T04:12:11;98534.75;;;7.38;100.00
6532;BME280;3299;42.004;24.868;2022-12-01T04:14:59;98537.41;;;7.37;100.00
6532;BME280;3299;42.004;24.868;2022-12-01T04:17:26;98540.88;;;7.20;100.00
6532;BME280;3299;42.004;24.868;2022-12-01T04:19:53;98538.72;;;7.13;100.00
6532;BME280;3299;42.004;24.868;2022-12-01T04:22:18;98540.94;;;7.03;100.00
6532;BME280;3299;42.004;24.868;2022-12-01T04:24:44;98541.41;;;6.94;100.00
6532;BME280;3299;42.004;24.868;2022-12-01T04:27:09;98520.56;;;6.83;100.00
6532;BME280;3299;42.004;24.868;2022-12-01T04:29:35;98528.59;;;6.77;100.00
6532;BME280;3299;42.004;24.868;2022-12-01T04:32:00;98534.81;;;6.73;100.00
6532;BME280;3299;42.004;24.868;2022-12-01T04:34:26;98536.94;;;6.65;100.00
6532;BME280;3299;42.004;24.868;2022-12-01T04:36:51;98539.06;;;6.57;100.00
6532;BME280;3299;42.004;24.868;2022-12-01T04:39:16;98525.91;;;6.46;100.00
6532;BME280;3299;42.004;24.868;2022-12-01T04:41:42;98549.03;;;6.63;100.00
6532;BME280;3299;42.004;24.868;2022-12-01T04:44:10;98541.41;;;6.62;100.00
6532;BME280;3299;42.004;24.868;2022-12-01T04:46:36;98544.22;;;6.57;100.00
6532;BME280;3299;42.004;24.868;2022-12-01T04:49:03;98546.34;;;6.49;100.00
6532;BME280;3299;42.004;24.868;2022-12-01T04:51:28;98545.25;;;6.53;100.00
6532;BME280;3299;42.004;24.868;2022-12-01T04:53:54;98551.63;;;6.46;100.00
6532;BME280;3299;42.004;24.868;2022-12-01T04:56:19;98538.34;;;6.38;100.00
6532;BME280;3299;42.004;24.868;2022-12-01T04:58:45;98555.25;;;6.42;100.00
6532;BME280;3299;42.004;24.868;2022-12-01T05:01:12;98543.09;;;6.29;100.00
6532;BME280;3299;42.004;24.868;2022-12-01T05:03:39;98552.22;;;6.34;100.00
6532;BME280;3299;42.004;24.868;2022-12-01T05:06:10;98553.69;;;6.40;100.00
6532;BME280;3299;42.004;24.868;2022-12-01T05:08:36;98560.00;;;6.33;100.00
6532;BME280;3299;42.004;24.868;2022-12-01T05:11:02;98555.63;;;6.18;100.00
6532;BME280;3299;42.004;24.868;2022-12-01T05:13:27;98558.09;;;6.19;100.00
6532;BME280;3299;42.004;24.868;2022-12-01T05:15:53;98557.28;;;6.19;100.00
6532;BME280;3299;42.004;24.868;2022-12-01T05:18:18;98557.59;;;6.13;100.00
6532;BME280;3299;42.004;24.868;2022-12-01T05:20:44;98552.88;;;6.04;100.00
6532;BME280;3299;42.004;24.868;2022-12-01T05:23:28;98560.53;;;6.05;100.00
6532;BME280;3299;42.004;24.868;2022-12-01T05:25:54;98559.63;;;6.06;100.00
6532;BME280;3299;42.004;24.868;2022-12-01T05:28:22;98559.63;;;6.06;100.00
6532;BME280;3299;42.004;24.868;2022-12-01T05:30:49;98550.13;;;6.08;100.00
6532;BME280;3299;42.004;24.868;2022-12-01T05:33:14;98561.44;;;6.21;100.00
6532;BME280;3299;42.004;24.868;2022-12-01T05:35:40;98562.97;;;6.25;100.00
6532;BME280;3299;42.004;24.868;2022-12-01T05:38:06;98562.97;;;6.25;100.00
6532;BME280;3299;42.004;24.868;2022-12-01T05:40:31;98552.16;;;6.19;100.00
6532;BME280;3299;42.004;24.868;2022-12-01T05:42:57;98562.56;;;6.16;100.00
6532;BME280;3299;42.004;24.868;2022-12-01T05:45:23;98568.16;;;6.07;100.00
6532;BME280;3299;42.004;24.868;2022-12-01T05:47:49;98563.56;;;5.96;100.00
6532;BME280;3299;42.004;24.868;2022-12-01T05:50:18;98548.56;;;5.87;100.00
6532;BME280;3299;42.004;24.868;2022-12-01T05:52:43;98563.00;;;5.90;100.00
6532;BME280;3299;42.004;24.868;2022-12-01T05:55:08;98567.75;;;5.80;100.00
6532;BME280;3299;42.004;24.868;2022-12-01T05:57:34;98565.69;;;5.87;100.00
6532;BME280;3299;42.004;24.868;2022-12-01T05:59:59;98567.38;;;5.88;100.00
6532;BME280;3299;42.004;24.868;2022-12-01T06:02:25;98525.97;;;5.58;100.00
6532;BME280;3299;42.004;24.868;2022-12-01T06:04:53;98567.56;;;5.83;100.00
6532;BME280;3299;42.004;24.868;2022-12-01T06:07:19;98555.72;;;5.81;100.00
6532;BME280;3299;42.004;24.868;2022-12-01T06:09:44;98577.09;;;5.81;100.00
6532;BME280;3299;42.004;24.868;2022-12-01T06:12:11;98566.53;;;5.87;100.00
6532;BME280;3299;42.004;24.868;2022-12-01T06:14:37;98571.13;;;5.81;100.00
6532;BME280;3299;42.004;24.868;2022-12-01T06:17:02;98571.06;;;5.82;100.00
6532;BME280;3299;42.004;24.868;2022-12-01T06:19:28;98579.22;;;5.90;100.00
6532;BME280;3299;42.004;24.868;2022-12-01T06:21:53;98583.59;;;5.88;100.00
6532;BME280;3299;42.004;24.868;2022-12-01T06:24:19;98590.88;;;5.97;100.00
6532;BME280;3299;42.004;24.868;2022-12-01T06:26:44;98584.97;;;5.95;100.00
6532;BME280;3299;42.004;24.868;2022-12-01T06:29:10;98590.25;;;5.92;100.00
6532;BME280;3299;42.004;24.868;2022-12-01T06:31:35;98596.09;;;5.96;100.00
6532;BME280;3299;42.004;24.868;2022-12-01T06:34:00;98583.88;;;6.01;100.00
6532;BME280;3299;42.004;24.868;2022-12-01T06:36:26;98587.13;;;6.04;100.00
6532;BME280;3299;42.004;24.868;2022-12-01T06:38:51;98579.25;;;6.07;100.00
6532;BME280;3299;42.004;24.868;2022-12-01T06:41:17;98586.88;;;6.09;100.00
6532;BME280;3299;42.004;24.868;2022-12-01T06:43:42;98589.84;;;6.18;100.00
6532;BME280;3299;42.004;24.868;2022-12-01T06:46:07;98583.53;;;6.25;100.00
6532;BME280;3299;42.004;24.868;2022-12-01T06:48:33;98592.06;;;6.26;100.00
6532;BME280;3299;42.004;24.868;2022-12-01T06:50:59;98585.94;;;6.28;100.00
6532;BME280;3299;42.004;24.868;2022-12-01T06:53:25;98587.75;;;6.26;100.00
6532;BME280;3299;42.004;24.868;2022-12-01T06:55:57;98597.56;;;6.18;100.00
6532;BME280;3299;42.004;24.868;2022-12-01T06:58:23;98594.66;;;6.07;100.00
6532;BME280;3299;42.004;24.868;2022-12-01T07:00:48;98584.56;;;6.04;100.00
6532;BME280;3299;42.004;24.868;2022-12-01T07:03:14;98590.97;;;6.13;100.00
6532;BME280;3299;42.004;24.868;2022-12-01T07:05:39;98595.91;;;6.17;100.00
6532;BME280;3299;42.004;24.868;2022-12-01T07:08:04;98592.34;;;6.20;100.00
6532;BME280;3299;42.004;24.868;2022-12-01T07:10:31;98594.91;;;6.20;100.00
6532;BME280;3299;42.004;24.868;2022-12-01T07:12:56;98591.78;;;6.13;100.00
6532;BME280;3299;42.004;24.868;2022-12-01T07:15:22;98595.44;;;6.09;100.00
6532;BME280;3299;42.004;24.868;2022-12-01T07:17:48;98597.53;;;6.01;100.00
6532;BME280;3299;42.004;24.868;2022-12-01T07:20:14;98599.97;;;6.04;100.00
6532;BME280;3299;42.004;24.868;2022-12-01T07:22:39;98591.91;;;6.12;100.00
6532;BME280;3299;42.004;24.868;2022-12-01T07:25:07;98587.88;;;6.06;100.00
6532;BME280;3299;42.004;24.868;2022-12-01T07:27:33;98581.97;;;6.04;100.00
6532;BME280;3299;42.004;24.868;2022-12-01T07:29:59;98570.97;;;6.02;100.00
6532;BME280;3299;42.004;24.868;2022-12-01T07:32:24;98590.44;;;6.06;100.00
6532;BME280;3299;42.004;24.868;2022-12-01T07:34:49;98580.69;;;5.96;100.00
6532;BME280;3299;42.004;24.868;2022-12-01T07:37:15;98594.28;;;5.98;100.00
6532;BME280;3299;42.004;24.868;2022-12-01T07:39:40;98589.53;;;6.07;100.00
6532;BME280;3299;42.004;24.868;2022-12-01T07:42:06;98579.72;;;5.98;100.00
6532;BME280;3299;42.004;24.868;2022-12-01T07:44:31;98580.53;;;5.99;100.00
6532;BME280;3299;42.004;24.868;2022-12-01T07:46:56;98580.69;;;5.96;100.00
6532;BME280;3299;42.004;24.868;2022-12-01T07:49:22;98582.09;;;6.01;100.00
6532;BME280;3299;42.004;24.868;2022-12-01T07:51:47;98576.91;;;6.03;100.00
6532;BME280;3299;42.004;24.868;2022-12-01T07:54:13;98577.88;;;6.00;100.00
6532;BME280;3299;42.004;24.868;2022-12-01T07:56:39;98580.38;;;6.02;100.00
6532;BME280;3299;42.004;24.868;2022-12-01T07:59:04;98584.47;;;6.06;100.00
6532;BME280;3299;42.004;24.868;2022-12-01T08:01:30;98570.72;;;6.07;100.00
6532;BME280;3299;42.004;24.868;2022-12-01T08:03:57;98582.22;;;6.17;100.00
6532;BME280;3299;42.004;24.868;2022-12-01T08:06:23;98585.56;;;6.19;100.00
6532;BME280;3299;42.004;24.868;2022-12-01T08:08:49;98588.13;;;6.19;100.00
6532;BME280;3299;42.004;24.868;2022-12-01T08:11:23;98582.22;;;6.17;100.00
6532;BME280;3299;42.004;24.868;2022-12-01T08:13:50;98577.84;;;6.19;100.00
6532;BME280;3299;42.004;24.868;2022-12-01T08:16:18;98588.06;;;6.20;100.00
6532;BME280;3299;42.004;24.868;2022-12-01T08:18:44;98592.50;;;6.17;100.00
6532;BME280;3299;42.004;24.868;2022-12-01T08:21:12;98584.09;;;6.13;100.00
6532;BME280;3299;42.004;24.868;2022-12-01T08:23:39;98586.59;;;6.15;100.00
6532;BME280;3299;42.004;24.868;2022-12-01T08:26:07;98583.66;;;6.22;100.00
6532;BME280;3299;42.004;24.868;2022-12-01T08:28:34;98582.13;;;6.18;100.00
6532;BME280;3299;42.004;24.868;2022-12-01T08:31:19;98581.03;;;6.24;100.00
6532;BME280;3299;42.004;24.868;2022-12-01T08:33:46;98586.56;;;6.33;100.00
6532;BME280;3299;42.004;24.868;2022-12-01T08:36:12;98570.69;;;6.25;100.00
6532;BME280;3299;42.004;24.868;2022-12-01T08:38:38;98584.44;;;6.41;100.00
6532;BME280;3299;42.004;24.868;2022-12-01T08:41:06;98584.72;;;6.35;100.00
6532;BME280;3299;42.004;24.868;2022-12-01T08:43:33;98573.44;;;6.21;100.00
6532;BME280;3299;42.004;24.868;2022-12-01T08:46:00;98575.66;;;6.28;100.00
6532;BME280;3299;42.004;24.868;2022-12-01T08:48:26;98563.09;;;6.22;100.00
6532;BME280;3299;42.004;24.868;2022-12-01T08:51:16;98571.25;;;6.30;100.00
6532;BME280;3299;42.004;24.868;2022-12-01T08:53:46;98571.56;;;6.24;100.00
6532;BME280;3299;42.004;24.868;2022-12-01T08:56:16;98558.53;;;6.29;100.00
6532;BME280;3299;42.004;24.868;2022-12-01T08:58:42;98564.41;;;6.31;100.00
6532;BME280;3299;42.004;24.868;2022-12-01T09:01:09;98564.41;;;6.31;100.00
6532;BME280;3299;42.004;24.868;2022-12-01T09:03:36;98559.19;;;6.32;100.00
6532;BME280;3299;42.004;24.868;2022-12-01T09:06:07;98550.56;;;6.33;100.00
6532;BME280;3299;42.004;24.868;2022-12-01T09:08:33;98551.94;;;6.40;100.00
6532;BME280;3299;42.004;24.868;2022-12-01T09:11:05;98543.16;;;6.44;100.00
6532;BME280;3299;42.004;24.868;2022-12-01T09:13:34;98546.56;;;6.45;100.00
6532;BME280;3299;42.004;24.868;2022-12-01T09:16:09;98549.41;;;6.56;100.00
6532;BME280;3299;42.004;24.868;2022-12-01T09:18:35;98542.16;;;6.64;100.00
6532;BME280;3299;42.004;24.868;2022-12-01T09:21:09;98539.06;;;6.57;100.00
6532;BME280;3299;42.004;24.868;2022-12-01T09:23:34;98557.19;;;6.71;100.00
6532;BME280;3299;42.004;24.868;2022-12-01T09:26:00;98541.72;;;6.56;100.00
6532;BME280;3299;42.004;24.868;2022-12-01T09:28:25;98542.69;;;6.53;100.00
6532;BME280;3299;42.004;24.868;2022-12-01T09:30:50;98543.28;;;6.58;100.00
6532;BME280;3299;42.004;24.868;2022-12-01T09:33:16;98537.84;;;6.47;100.00
6532;BME280;3299;42.004;24.868;2022-12-01T09:35:41;98546.84;;;6.56;100.00
6532;BME280;3299;42.004;24.868;2022-12-01T09:38:07;98541.19;;;6.49;100.00
6532;BME280;3299;42.004;24.868;2022-12-01T09:40:38;98531.38;;;6.40;100.00
6532;BME280;3299;42.004;24.868;2022-12-01T09:43:44;98539.00;;;6.42;100.00
6532;BME280;3299;42.004;24.868;2022-12-01T09:46:18;98531.97;;;6.45;100.00
6532;BME280;3299;42.004;24.868;2022-12-01T09:48:47;98533.84;;;6.59;100.00
6532;BME280;3299;42.004;24.868;2022-12-01T09:51:21;98537.34;;;6.58;100.00
6532;BME280;3299;42.004;24.868;2022-12-01T09:53:49;98534.97;;;6.53;100.00
6532;BME280;3299;42.004;24.868;2022-12-01T09:58:49;98520.16;;;6.58;100.00
6532;BME280;3299;42.004;24.868;2022-12-01T10:01:17;98520.31;;;6.72;100.00
6532;BME280;3299;42.004;24.868;2022-12-01T10:03:51;98522.31;;;6.83;100.00
6532;BME280;3299;42.004;24.868;2022-12-01T10:06:25;98518.13;;;6.65;100.00
6532;BME280;3299;42.004;24.868;2022-12-01T10:09:24;98513.44;;;6.39;100.00
6532;BME280;3299;42.004;24.868;2022-12-01T10:11:54;98508.66;;;6.48;100.00
6532;BME280;3299;42.004;24.868;2022-12-01T10:14:22;98507.03;;;6.47;100.00
6532;BME280;3299;42.004;24.868;2022-12-01T10:20:01;98518.06;;;6.66;100.00
6532;BME280;3299;42.004;24.868;2022-12-01T10:25:23;98519.25;;;6.59;100.00
6532;BME280;3299;42.004;24.868;2022-12-01T10:30:23;98507.13;;;6.46;100.00
6532;BME280;3299;42.004;24.868;2022-12-01T10:33:39;98507.78;;;6.49;100.00
6532;BME280;3299;42.004;24.868;2022-12-01T10:35:42;98505.97;;;6.34;100.00
6532;BME280;3299;42.004;24.868;2022-12-01T10:38:14;98505.84;;;6.37;100.00
6532;BME280;3299;42.004;24.868;2022-12-01T10:40:43;98493.88;;;6.36;100.00
6532;BME280;3299;42.004;24.868;2022-12-01T10:43:09;98494.59;;;6.40;100.00
6532;BME280;3299;42.004;24.868;2022-12-01T10:45:39;98508.38;;;6.54;100.00
6532;BME280;3299;42.004;24.868;2022-12-01T10:48:20;98502.97;;;6.43;100.00
6532;BME280;3299;42.004;24.868;2022-12-01T10:50:51;98494.34;;;6.44;100.00
6532;BME280;3299;42.004;24.868;2022-12-01T10:53:30;98497.34;;;6.35;100.00
6532;BME280;3299;42.004;24.868;2022-12-01T10:56:13;98497.06;;;6.07;100.00
6532;BME280;3299;42.004;24.868;2022-12-01T10:58:52;98498.88;;;6.05;100.00
6532;BME280;3299;42.004;24.868;2022-12-01T11:01:27;98489.91;;;6.14;100.00
6532;BME280;3299;42.004;24.868;2022-12-01T11:03:58;98496.38;;;6.21;100.00
6532;BME280;3299;42.004;24.868;2022-12-01T11:06:28;98491.19;;;6.22;100.00
6532;BME280;3299;42.004;24.868;2022-12-01T11:09:00;98496.63;;;6.16;100.00
6532;BME280;3299;42.004;24.868;2022-12-01T11:13:55;98494.50;;;6.24;100.00
6532;BME280;3299;42.004;24.868;2022-12-01T11:16:54;98494.19;;;6.30;100.00
6532;BME280;3299;42.004;24.868;2022-12-01T11:19:31;98482.13;;;6.32;100.00
6532;BME280;3299;42.004;24.868;2022-12-01T11:21:59;98473.63;;;6.30;100.00
6532;BME280;3299;42.004;24.868;2022-12-01T11:24:42;98472.25;;;6.40;100.00
6532;BME280;3299;42.004;24.868;2022-12-01T11:27:14;98478.00;;;6.45;100.00
6532;BME280;3299;42.004;24.868;2022-12-01T11:29:41;98480.00;;;6.56;100.00
6532;BME280;3299;42.004;24.868;2022-12-01T11:32:34;98478.88;;;6.61;100.00
6532;BME280;3299;42.004;24.868;2022-12-01T11:37:34;98473.44;;;6.67;100.00
6532;BME280;3299;42.004;24.868;2022-12-01T11:40:15;98473.25;;;6.70;100.00
6532;BME280;3299;42.004;24.868;2022-12-01T11:42:49;98458.34;;;6.77;100.00
6532;BME280;3299;42.004;24.868;2022-12-01T11:50:29;98470.66;;;7.03;100.00
6532;BME280;3299;42.004;24.868;2022-12-01T11:52:54;98473.16;;;7.04;100.00
6532;BME280;3299;42.004;24.868;2022-12-01T11:55:21;98466.81;;;6.94;100.00
6532;BME280;3299;42.004;24.868;2022-12-01T11:57:50;98465.63;;;6.69;100.00
6532;BME280;3299;42.004;24.868;2022-12-01T12:00:19;98462.94;;;6.55;100.00
6532;BME280;3299;42.004;24.868;2022-12-01T12:06:21;98470.22;;;6.79;100.00
6532;BME280;3299;42.004;24.868;2022-12-01T12:11:21;98470.22;;;6.79;100.00
6532;BME280;3299;42.004;24.868;2022-12-01T12:19:15;98469.66;;;7.05;100.00
6532;BME280;3299;42.004;24.868;2022-12-01T12:24:38;98472.47;;;7.16;100.00
6532;BME280;3299;42.004;24.868;2022-12-01T12:27:21;98472.06;;;7.08;100.00
6532;BME280;3299;42.004;24.868;2022-12-01T12:35:02;98467.41;;;7.15;100.00
6532;BME280;3299;42.004;24.868;2022-12-01T12:40:43;98474.78;;;6.90;100.00
6532;BME280;3299;42.004;24.868;2022-12-01T12:46:10;98463.97;;;6.83;100.00
6532;BME280;3299;42.004;24.868;2022-12-01T12:48:52;98462.78;;;6.90;100.00
6532;BME280;3299;42.004;24.868;2022-12-01T12:51:26;98460.88;;;6.94;100.00
6532;BME280;3299;42.004;24.868;2022-12-01T12:56:32;98452.63;;;6.87;100.00
6532;BME280;3299;42.004;24.868;2022-12-01T12:59:06;98454.81;;;6.95;100.00
6532;BME280;3299;42.004;24.868;2022-12-01T13:01:40;98463.69;;;7.05;100.00
6532;BME280;3299;42.004;24.868;2022-12-01T13:04:17;98443.41;;;6.83;100.00
6532;BME280;3299;42.004;24.868;2022-12-01T13:07:21;98457.84;;;6.86;100.00
6532;BME280;3299;42.004;24.868;2022-12-01T13:09:47;98452.56;;;6.89;100.00
6532;BME280;3299;42.004;24.868;2022-12-01T13:12:24;98462.19;;;6.85;100.00
6532;BME280;3299;42.004;24.868;2022-12-01T13:15:14;98453.34;;;6.74;100.00
6532;BME280;3299;42.004;24.868;2022-12-01T13:17:43;98466.00;;;6.78;100.00
6532;BME280;3299;42.004;24.868;2022-12-01T13:20:15;98457.00;;;6.70;100.00
6532;BME280;3299;42.004;24.868;2022-12-01T13:22:42;98456.97;;;6.54;100.00
6532;BME280;3299;42.004;24.868;2022-12-01T13:25:12;98452.28;;;6.62;100.00
6532;BME280;3299;42.004;24.868;2022-12-01T13:27:41;98455.44;;;6.67;100.00
6532;BME280;3299;42.004;24.868;2022-12-01T13:30:20;98453.97;;;6.46;100.00
6532;BME280;3299;42.004;24.868;2022-12-01T13:32:47;98457.91;;;6.36;100.00
6532;BME280;3299;42.004;24.868;2022-12-01T13:38:15;98461.38;;;6.35;100.00
6532;BME280;3299;42.004;24.868;2022-12-01T13:40:38;98458.53;;;6.24;100.00
6532;BME280;3299;42.004;24.868;2022-12-01T13:43:06;98460.34;;;6.39;100.00
6532;BME280;3299;42.004;24.868;2022-12-01T13:45:40;98460.84;;;6.46;100.00
6532;BME280;3299;42.004;24.868;2022-12-01T13:51:12;98466.03;;;6.29;100.00
6532;BME280;3299;42.004;24.868;2022-12-01T13:53:37;98458.22;;;6.13;100.00
6532;BME280;3299;42.004;24.868;2022-12-01T13:58:45;98459.91;;;6.31;100.00
6532;BME280;3299;42.004;24.868;2022-12-01T14:09:31;98462.47;;;6.31;100.00
6532;BME280;3299;42.004;24.868;2022-12-01T14:12:02;98466.13;;;6.43;100.00
6532;BME280;3299;42.004;24.868;2022-12-01T14:14:34;98467.28;;;6.37;100.00
6532;BME280;3299;42.004;24.868;2022-12-01T14:17:21;98466.66;;;6.49;100.00
6532;BME280;3299;42.004;24.868;2022-12-01T14:19:50;98468.94;;;6.38;100.00
6532;BME280;3299;42.004;24.868;2022-12-01T14:25:20;98469.69;;;6.40;100.00
6532;BME280;3299;42.004;24.868;2022-12-01T14:27:49;98465.91;;;6.47;100.00
6532;BME280;3299;42.004;24.868;2022-12-01T14:36:10;98473.47;;;6.50;100.00
6532;BME280;3299;42.004;24.868;2022-12-01T14:38:41;98465.94;;;6.63;100.00
6532;BME280;3299;42.004;24.868;2022-12-01T14:41:08;98464.44;;;6.59;100.00
6532;BME280;3299;42.004;24.868;2022-12-01T14:43:37;98466.47;;;6.69;100.00
6532;BME280;3299;42.004;24.868;2022-12-01T14:46:26;98470.53;;;6.73;100.00
6532;BME280;3299;42.004;24.868;2022-12-01T14:48:53;98478.72;;;6.64;100.00
6532;BME280;3299;42.004;24.868;2022-12-01T14:51:29;98479.31;;;6.69;100.00
6532;BME280;3299;42.004;24.868;2022-12-01T14:53:57;98470.84;;;6.67;100.00
6532;BME280;3299;42.004;24.868;2022-12-01T14:56:24;98467.25;;;6.54;100.00
6532;BME280;3299;42.004;24.868;2022-12-01T14:58:58;98477.66;;;6.68;100.00
6532;BME280;3299;42.004;24.868;2022-12-01T15:01:31;98476.66;;;6.38;100.00
6532;BME280;3299;42.004;24.868;2022-12-01T15:04:00;98481.03;;;6.36;100.00
6532;BME280;3299;42.004;24.868;2022-12-01T15:06:27;98480.41;;;6.48;100.00
6532;BME280;3299;42.004;24.868;2022-12-01T15:11:29;98488.75;;;6.19;100.00
6532;BME280;3299;42.004;24.868;2022-12-01T15:13:56;98479.25;;;6.21;100.00
6532;BME280;3299;42.004;24.868;2022-12-01T15:16:28;98475.41;;;6.13;100.00